Time,TemperatureF,DewpointF,PressureIn,WindDirection,WindDirectionDegrees,WindSpeedMPH,WindSpeedGustMPH,Humidity,HourlyPrecipIn,Conditions,Clouds,dailyrainin,SolarRadiationWatts/m^2,SoftwareType,DateUTC
2013-05-05 00:00:00,58.6,56.3,29.90,ENE,76,2.0,10.0,92,0.00,,OVC016,0.18,0.00,VWS V14.00,2013-05-05 04:00:00,
2013-05-05 00:01:00,58.6,56.0,29.90,East,89,0.0,10.0,91,0.00,,OVC016,0.18,0.00,VWS V14.00,2013-05-05 04:01:00,
2013-05-05 00:03:00,58.6,56.0,29.90,NE,52,0.0,1.0,91,0.00,,-RA,0.00,0.00,VWS V14.00,2013-05-05 04:03:00,
2013-05-05 00:04:00,58.6,56.3,29.90,ENE,73,2.0,2.0,92,0.00,,-RA,0.00,0.00,VWS V14.00,2013-05-05 04:04:00,
2013-05-05 00:09:00,58.6,56.3,29.90,East,95,2.0,8.0,92,0.00,,-RA,0.00,0.00,VWS V14.00,2013-05-05 04:09:00,
2013-05-05 00:14:00,58.6,56.0,29.90,ENE,64,3.0,12.0,91,0.00,,-RA,0.00,0.00,VWS V14.00,2013-05-05 04:14:00,
2013-05-05 00:19:00,58.4,55.8,29.90,East,97,2.0,12.0,91,0.00,,-RA,0.00,0.00,VWS V14.00,2013-05-05 04:19:00,
2013-05-05 00:24:00,58.4,55.8,29.90,East,95,3.0,8.0,91,0.00,,-RA,0.00,0.00,VWS V14.00,2013-05-05 04:24:00,
2013-05-05 00:29:00,58.4,55.8,29.90,East,92,5.0,11.0,91,0.00,,-RA,0.00,0.00,VWS V14.00,2013-05-05 04:29:00,
2013-05-05 00:34:00,58.4,55.8,29.91,SSW,198,0.0,8.0,91,0.00,,-RA,0.00,0.00,VWS V14.00,2013-05-05 04:34:00,
2013-05-05 00:39:00,58.4,55.8,29.91,SE,140,3.0,8.0,91,0.00,,-RA,0.00,0.00,VWS V14.00,2013-05-05 04:39:00,
2013-05-05 00:44:00,58.4,55.8,29.91,SE,140,6.0,8.0,91,0.00,,-RA,0.00,0.00,VWS V14.00,2013-05-05 04:44:00,
2013-05-05 00:49:00,58.4,55.8,29.91,NE,34,0.0,12.0,91,0.00,,-RA,0.00,0.00,VWS V14.00,2013-05-05 04:49:00,
2013-05-05 00:54:00,58.4,55.8,29.91,East,96,1.0,5.0,91,0.00,,-RA,0.00,0.00,VWS V14.00,2013-05-05 04:54:00,
2013-05-05 00:59:00,58.3,55.7,29.91,West,277,2.0,6.0,91,0.00,,-RA,0.00,0.00,VWS V14.00,2013-05-05 04:59:00,
2013-05-05 01:04:00,58.3,55.7,29.90,NE,42,0.0,7.0,91,0.00,,OVC013,0.00,0.00,VWS V14.00,2013-05-05 05:04:00,
2013-05-05 01:09:00,58.3,55.7,29.90,NW,305,1.0,7.0,91,0.00,,OVC013,0.00,0.00,VWS V14.00,2013-05-05 05:09:00,
2013-05-05 01:14:00,58.3,55.7,29.90,ESE,110,2.0,10.0,91,0.00,,OVC013,0.00,0.00,VWS V14.00,2013-05-05 05:14:00,
2013-05-05 01:19:00,58.1,55.5,29.90,WNW,288,0.0,10.0,91,0.00,,OVC013,0.00,0.00,VWS V14.00,2013-05-05 05:19:00,
2013-05-05 01:24:00,58.1,55.5,29.90,NNE,20,0.0,9.0,91,0.00,,OVC013,0.01,0.00,VWS V14.00,2013-05-05 05:24:00,
2013-05-05 01:29:00,58.1,55.5,29.90,NE,51,0.0,9.0,91,0.00,,OVC013,0.01,0.00,VWS V14.00,2013-05-05 05:29:00,
2013-05-05 01:34:00,58.0,55.4,29.89,ESE,123,5.0,6.0,91,0.00,,OVC013,0.01,0.00,VWS V14.00,2013-05-05 05:34:00,
2013-05-05 01:39:00,58.0,55.4,29.89,ENE,58,3.0,7.0,91,0.00,,OVC013,0.01,0.00,VWS V14.00,2013-05-05 05:39:00,
2013-05-05 01:44:00,58.0,55.4,29.89,SE,138,7.0,11.0,91,0.00,,OVC013,0.01,0.00,VWS V14.00,2013-05-05 05:44:00,
2013-05-05 01:49:00,58.0,55.4,29.89,SSE,157,0.0,11.0,91,0.00,,OVC013,0.01,0.00,VWS V14.00,2013-05-05 05:49:00,
2013-05-05 01:54:00,57.8,55.2,29.89,ENE,58,0.0,3.0,91,0.00,,OVC013,0.01,0.00,VWS V14.00,2013-05-05 05:54:00,
2013-05-05 01:59:00,57.8,55.2,29.89,North,1,1.0,8.0,91,0.00,,OVC013,0.01,0.00,VWS V14.00,2013-05-05 05:59:00,
2013-05-05 02:04:00,57.8,55.2,29.89,NE,56,0.0,7.0,91,0.00,,OVC013,0.01,0.00,VWS V14.00,2013-05-05 06:04:00,
2013-05-05 02:09:00,57.8,55.2,29.89,ESE,103,1.0,10.0,91,0.00,,OVC013,0.01,0.00,VWS V14.00,2013-05-05 06:09:00,
2013-05-05 02:14:00,57.8,55.2,29.89,ENE,71,2.0,5.0,91,0.00,,OVC013,0.01,0.00,VWS V14.00,2013-05-05 06:14:00,
2013-05-05 02:19:00,57.6,55.0,29.88,ESE,117,3.0,6.0,91,0.00,,OVC013,0.01,0.00,VWS V14.00,2013-05-05 06:19:00,
2013-05-05 02:24:00,57.6,55.0,29.88,East,85,6.0,7.0,91,0.00,,OVC013,0.01,0.00,VWS V14.00,2013-05-05 06:24:00,
2013-05-05 02:29:00,57.6,55.0,29.88,ESE,113,1.0,7.0,91,0.00,,OVC013,0.01,0.00,VWS V14.00,2013-05-05 06:29:00,
2013-05-05 02:34:00,57.6,55.0,29.86,SE,145,2.0,11.0,91,0.00,,OVC013,0.01,0.00,VWS V14.00,2013-05-05 06:34:00,
2013-05-05 02:39:00,57.5,54.9,29.86,ESE,106,0.0,11.0,91,0.00,,OVC013,0.01,0.00,VWS V14.00,2013-05-05 06:39:00,
2013-05-05 02:44:00,57.5,54.9,29.86,East,80,0.0,7.0,91,0.00,,OVC013,0.01,0.00,VWS V14.00,2013-05-05 06:44:00,
2013-05-05 02:49:00,57.5,54.9,29.86,ENE,65,5.0,7.0,91,0.00,,OVC013,0.01,0.00,VWS V14.00,2013-05-05 06:49:00,
2013-05-05 02:54:00,57.5,54.9,29.86,East,92,0.0,0.0,91,0.00,,OVC013,0.01,0.00,VWS V14.00,2013-05-05 06:54:00,
2013-05-05 02:59:00,57.5,54.9,29.86,South,191,3.0,7.0,91,0.00,,OVC013,0.01,0.00,VWS V14.00,2013-05-05 06:59:00,
2013-05-05 03:04:00,57.5,54.9,29.85,NE,55,0.0,6.0,91,0.00,,OVC011,0.01,0.00,VWS V14.00,2013-05-05 07:04:00,
2013-05-05 03:09:00,57.5,55.2,29.85,South,188,2.0,11.0,92,0.00,,OVC011,0.01,0.00,VWS V14.00,2013-05-05 07:09:00,
2013-05-05 03:14:00,57.5,55.2,29.85,East,97,0.0,3.0,92,0.00,,OVC011,0.01,0.00,VWS V14.00,2013-05-05 07:14:00,
2013-05-05 03:19:00,57.5,55.2,29.84,ENE,64,2.0,12.0,92,0.00,,OVC011,0.01,0.00,VWS V14.00,2013-05-05 07:19:00,
2013-05-05 03:24:00,57.5,55.2,29.84,NNE,28,1.0,3.0,92,0.00,,OVC011,0.01,0.00,VWS V14.00,2013-05-05 07:24:00,
2013-05-05 03:29:00,57.5,55.2,29.84,NE,51,0.0,4.0,92,0.00,,OVC011,0.01,0.00,VWS V14.00,2013-05-05 07:29:00,
2013-05-05 03:34:00,57.5,55.2,29.84,SW,232,2.0,5.0,92,0.00,,OVC011,0.01,0.00,VWS V14.00,2013-05-05 07:34:00,
2013-05-05 03:39:00,57.5,55.2,29.84,NE,44,0.0,7.0,92,0.00,,OVC011,0.01,0.00,VWS V14.00,2013-05-05 07:39:00,
2013-05-05 03:44:00,57.5,55.2,29.84,East,93,0.0,5.0,92,0.00,,OVC011,0.01,0.00,VWS V14.00,2013-05-05 07:44:00,
2013-05-05 03:49:00,57.5,55.2,29.85,ENE,78,0.0,7.0,92,0.00,,OVC011,0.01,0.00,VWS V14.00,2013-05-05 07:49:00,
2013-05-05 03:54:00,57.5,55.2,29.85,South,172,0.0,5.0,92,0.00,,OVC011,0.01,0.00,VWS V14.00,2013-05-05 07:54:00,
2013-05-05 03:59:00,57.5,55.2,29.85,ENE,72,5.0,10.0,92,0.00,,OVC011,0.01,0.00,VWS V14.00,2013-05-05 07:59:00,
2013-05-05 04:04:00,57.5,55.2,29.84,ESE,107,0.0,3.0,92,0.00,,-RA,0.01,0.00,VWS V14.00,2013-05-05 08:04:00,
2013-05-05 04:09:00,57.6,55.3,29.84,ENE,59,2.0,7.0,92,0.00,,-RA,0.01,0.00,VWS V14.00,2013-05-05 08:09:00,
2013-05-05 04:14:00,57.6,55.3,29.84,ENE,73,0.0,8.0,92,0.00,,-RA,0.01,0.00,VWS V14.00,2013-05-05 08:14:00,
2013-05-05 04:19:00,57.6,55.3,29.84,ENE,58,5.0,8.0,92,0.00,,-RA,0.01,0.00,VWS V14.00,2013-05-05 08:19:00,
2013-05-05 04:24:00,57.6,55.3,29.84,ENE,73,0.0,7.0,92,0.00,,-RA,0.02,0.00,VWS V14.00,2013-05-05 08:24:00,
2013-05-05 04:29:00,57.6,55.3,29.84,SSW,208,5.0,10.0,92,0.00,,-RA,0.02,0.00,VWS V14.00,2013-05-05 08:29:00,
2013-05-05 04:34:00,57.6,55.3,29.83,East,85,0.0,4.0,92,0.00,,OVC009,0.02,0.00,VWS V14.00,2013-05-05 08:34:00,
2013-05-05 04:39:00,57.6,55.3,29.83,NE,40,1.0,7.0,92,0.00,,OVC009,0.02,0.00,VWS V14.00,2013-05-05 08:39:00,
2013-05-05 04:44:00,57.6,55.3,29.83,ESE,103,0.0,3.0,92,0.00,,OVC009,0.02,0.00,VWS V14.00,2013-05-05 08:44:00,
2013-05-05 04:49:00,57.6,55.3,29.84,NNE,25,1.0,6.0,92,0.00,,OVC009,0.02,0.00,VWS V14.00,2013-05-05 08:49:00,
2013-05-05 04:54:00,57.6,55.3,29.84,NE,49,2.0,7.0,92,0.00,,OVC009,0.02,0.00,VWS V14.00,2013-05-05 08:54:00,
2013-05-05 04:59:00,57.5,55.2,29.84,ENE,75,2.0,7.0,92,0.00,,OVC009,0.02,0.00,VWS V14.00,2013-05-05 08:59:00,
2013-05-05 05:04:00,57.5,55.2,29.82,East,79,0.0,2.0,92,0.00,,-RA,0.02,0.00,VWS V14.00,2013-05-05 09:04:00,
2013-05-05 05:09:00,57.5,55.2,29.82,NNE,24,1.0,7.0,92,0.00,,-RA,0.02,0.00,VWS V14.00,2013-05-05 09:09:00,
2013-05-05 05:14:00,57.5,55.2,29.82,East,80,6.0,11.0,92,0.00,,-RA,0.02,0.00,VWS V14.00,2013-05-05 09:14:00,
2013-05-05 05:19:00,57.5,55.2,29.83,SSW,205,6.0,11.0,92,0.00,,-RA,0.02,0.00,VWS V14.00,2013-05-05 09:19:00,
2013-05-05 05:24:00,57.5,55.2,29.83,WSW,258,1.0,10.0,92,0.00,,-RA,0.02,0.00,VWS V14.00,2013-05-05 09:24:00,
2013-05-05 05:29:00,57.5,55.2,29.83,WNW,298,0.0,10.0,92,0.00,,-RA,0.02,0.00,VWS V14.00,2013-05-05 09:29:00,
2013-05-05 05:34:00,57.5,55.2,29.82,NE,44,3.0,5.0,92,0.00,,OVC011,0.02,0.00,VWS V14.00,2013-05-05 09:34:00,
2013-05-05 05:39:00,57.5,55.2,29.82,East,97,2.0,7.0,92,0.00,,OVC011,0.02,0.00,VWS V14.00,2013-05-05 09:39:00,
2013-05-05 05:44:00,57.3,55.0,29.82,ENE,61,0.0,7.0,92,0.00,,OVC011,0.02,0.00,VWS V14.00,2013-05-05 09:44:00,
2013-05-05 05:49:00,57.3,55.0,29.82,ENE,72,0.0,8.0,92,0.00,,OVC011,0.02,0.00,VWS V14.00,2013-05-05 09:49:00,
2013-05-05 05:54:00,57.3,55.0,29.82,East,92,1.0,8.0,92,0.00,,OVC011,0.02,0.00,VWS V14.00,2013-05-05 09:54:00,
2013-05-05 05:59:00,57.3,55.0,29.82,ESE,112,3.0,8.0,92,0.00,,OVC011,0.02,0.00,VWS V14.00,2013-05-05 09:59:00,
2013-05-05 06:04:00,57.3,55.0,29.83,ENE,64,0.0,3.0,92,0.00,,-RA,0.02,0.00,VWS V14.00,2013-05-05 10:04:00,
2013-05-05 06:09:00,57.3,55.0,29.83,North,11,8.0,8.0,92,0.00,,-RA,0.02,0.00,VWS V14.00,2013-05-05 10:09:00,
2013-05-05 06:14:00,57.3,55.0,29.83,East,82,0.0,17.0,92,0.00,,-RA,0.02,0.00,VWS V14.00,2013-05-05 10:14:00,
2013-05-05 06:19:00,57.3,55.0,29.82,SW,219,1.0,17.0,92,0.00,,-RA,0.02,0.00,VWS V14.00,2013-05-05 10:19:00,
2013-05-05 06:24:00,57.3,55.0,29.82,SSW,206,1.0,6.0,92,0.00,,OVC009,0.02,0.00,VWS V14.00,2013-05-05 10:24:00,
2013-05-05 06:29:00,57.2,54.9,29.82,ESE,109,8.0,8.0,92,0.00,,OVC009,0.02,0.00,VWS V14.00,2013-05-05 10:29:00,
2013-05-05 06:34:00,57.2,54.9,29.82,NE,55,0.0,11.0,92,0.00,,OVC009,0.02,0.00,VWS V14.00,2013-05-05 10:34:00,
2013-05-05 06:39:00,57.2,54.9,29.82,NE,42,1.0,11.0,92,0.00,,OVC009,0.02,0.00,VWS V14.00,2013-05-05 10:39:00,
2013-05-05 06:44:00,57.2,54.9,29.82,SSE,148,6.0,11.0,92,0.00,,OVC009,0.02,5.00,VWS V14.00,2013-05-05 10:44:00,
2013-05-05 06:49:00,57.0,54.7,29.82,ENE,59,0.0,11.0,92,0.00,,OVC009,0.02,5.00,VWS V14.00,2013-05-05 10:49:00,
2013-05-05 06:54:00,57.0,54.7,29.82,ENE,68,1.0,5.0,92,0.00,,OVC011,0.02,5.00,VWS V14.00,2013-05-05 10:54:00,
2013-05-05 06:59:00,57.0,54.7,29.82,NE,51,0.0,12.0,92,0.00,,OVC011,0.02,5.00,VWS V14.00,2013-05-05 10:59:00,
2013-05-05 07:04:00,57.0,54.7,29.83,NNE,23,3.0,6.0,92,0.00,,OVC011,0.02,7.00,VWS V14.00,2013-05-05 11:04:00,
2013-05-05 07:09:00,57.0,54.7,29.83,SE,143,6.0,6.0,92,0.00,,OVC011,0.02,11.00,VWS V14.00,2013-05-05 11:09:00,
2013-05-05 07:14:00,57.0,54.7,29.83,ENE,68,3.0,4.0,92,0.00,,OVC011,0.02,12.00,VWS V14.00,2013-05-05 11:14:00,
2013-05-05 07:19:00,56.9,54.6,29.81,ENE,78,0.0,7.0,92,0.00,,OVC011,0.02,14.00,VWS V14.00,2013-05-05 11:19:00,
2013-05-05 07:24:00,56.9,55.8,29.81,WNW,291,3.0,6.0,96,0.00,,OVC011,0.02,25.00,VWS V14.00,2013-05-05 11:24:00,
2013-05-05 07:29:00,56.9,54.6,29.81,North,0,2.0,8.0,92,0.00,,OVC011,0.02,23.00,VWS V14.00,2013-05-05 11:29:00,
2013-05-05 07:34:00,56.9,54.6,29.81,North,6,2.0,11.0,92,0.00,,OVC011,0.02,21.00,VWS V14.00,2013-05-05 11:34:00,
2013-05-05 07:39:00,57.0,54.7,29.81,NE,38,0.0,11.0,92,0.00,,OVC011,0.03,18.00,VWS V14.00,2013-05-05 11:39:00,
2013-05-05 07:44:00,57.0,54.7,29.81,ENE,73,0.0,10.0,92,0.00,,OVC011,0.03,21.00,VWS V14.00,2013-05-05 11:44:00,
2013-05-05 07:49:00,57.0,54.7,29.82,East,97,1.0,10.0,92,0.00,,OVC011,0.03,18.00,VWS V14.00,2013-05-05 11:49:00,
2013-05-05 07:54:00,56.9,54.6,29.82,NNE,31,2.0,6.0,92,0.00,,OVC011,0.03,19.00,VWS V14.00,2013-05-05 11:54:00,
2013-05-05 07:59:00,56.9,54.6,29.82,SE,127,0.0,6.0,92,0.00,,OVC011,0.03,18.00,VWS V14.00,2013-05-05 11:59:00,
2013-05-05 08:04:00,57.0,55.0,29.83,ENE,66,0.0,1.0,93,0.00,,-RA,0.03,21.00,VWS V14.00,2013-05-05 12:04:00,
2013-05-05 08:09:00,57.0,55.9,29.83,North,3,0.0,8.0,96,0.00,,-RA,0.03,33.00,VWS V14.00,2013-05-05 12:09:00,
2013-05-05 08:14:00,57.0,55.9,29.83,East,96,0.0,5.0,96,0.00,,-RA,0.04,30.00,VWS V14.00,2013-05-05 12:14:00,
2013-05-05 08:19:00,57.0,55.9,29.83,SE,137,0.0,6.0,96,0.00,,-RA,0.04,28.00,VWS V14.00,2013-05-05 12:19:00,
2013-05-05 08:24:00,57.0,55.9,29.83,NE,51,0.0,6.0,96,0.00,, +RA,0.04,25.00,VWS V14.00,2013-05-05 12:24:00,
2013-05-05 08:29:00,57.2,55.2,29.83,NW,315,0.0,7.0,93,0.00,, +RA,0.04,18.00,VWS V14.00,2013-05-05 12:29:00,
2013-05-05 08:34:00,57.2,55.2,29.84,NE,54,0.0,8.0,93,0.00,, +RA,0.04,14.00,VWS V14.00,2013-05-05 12:34:00,
2013-05-05 08:39:00,57.3,55.3,29.84,NE,48,0.0,8.0,93,0.00,, +RA,0.04,16.00,VWS V14.00,2013-05-05 12:39:00,
2013-05-05 08:44:00,57.3,55.3,29.84,East,96,0.0,2.0,93,0.00,, +RA,0.05,12.00,VWS V14.00,2013-05-05 12:44:00,
2013-05-05 08:49:00,57.3,55.3,29.84,SE,140,0.0,2.0,93,0.14,, +RA,0.06,11.00,VWS V14.00,2013-05-05 12:49:00,
2013-05-05 08:54:00,57.5,55.5,29.84,SSW,198,0.0,1.0,93,0.08,, +RA,0.06,7.00,VWS V14.00,2013-05-05 12:54:00,
2013-05-05 08:59:00,57.5,55.5,29.84,ENE,68,0.0,1.0,93,0.06,, +RA,0.07,7.00,VWS V14.00,2013-05-05 12:59:00,
2013-05-05 09:04:00,57.5,55.5,29.85,NE,40,0.0,0.0,93,0.30,, +RA,0.11,12.00,VWS V14.00,2013-05-05 13:04:00,
2013-05-05 09:09:00,57.5,55.5,29.85,NE,40,0.0,0.0,93,0.17,, +RA,0.12,21.00,VWS V14.00,2013-05-05 13:09:00,
2013-05-05 09:14:00,57.5,56.7,29.85,ESE,107,0.0,2.0,97,0.07,, +RA,0.12,32.00,VWS V14.00,2013-05-05 13:14:00,
2013-05-05 09:19:00,57.6,55.6,29.83,East,83,0.0,3.0,93,0.06,, +RA,0.13,23.00,VWS V14.00,2013-05-05 13:19:00,
2013-05-05 09:24:00,57.6,56.8,29.83,East,80,0.0,6.0,97,0.23,, +RA,0.16,70.00,VWS V14.00,2013-05-05 13:24:00,
2013-05-05 09:29:00,57.6,56.8,29.83,ESE,114,0.0,6.0,97,0.34,, +RA,0.18,83.00,VWS V14.00,2013-05-05 13:29:00,
2013-05-05 09:34:00,57.8,57.0,29.83,ENE,59,0.0,2.0,97,0.16,, +RA,0.19,46.00,VWS V14.00,2013-05-05 13:34:00,
2013-05-05 09:39:00,57.8,57.0,29.83,ESE,116,0.0,5.0,97,0.09,, +RA,0.20,35.00,VWS V14.00,2013-05-05 13:39:00,
2013-05-05 09:44:00,58.0,57.2,29.83,North,4,0.0,7.0,97,0.09,, +RA,0.21,58.00,VWS V14.00,2013-05-05 13:44:00,
2013-05-05 09:49:00,58.0,57.2,29.83,West,274,0.0,7.0,97,0.20,, +RA,0.22,53.00,VWS V14.00,2013-05-05 13:49:00,
2013-05-05 09:54:00,58.0,57.2,29.83,NE,48,0.0,5.0,97,0.12,, +RA,0.23,26.00,VWS V14.00,2013-05-05 13:54:00,
2013-05-05 09:59:00,58.0,57.2,29.83,South,181,0.0,6.0,97,0.23,, +RA,0.25,33.00,VWS V14.00,2013-05-05 13:59:00,
2013-05-05 10:04:00,58.0,57.2,29.85,SSW,192,0.0,1.0,97,0.24,, +RA,0.28,19.00,VWS V14.00,2013-05-05 14:04:00,
2013-05-05 10:09:00,58.1,57.3,29.85,SSW,192,0.0,1.0,97,0.60,, +RA,0.34,19.00,VWS V14.00,2013-05-05 14:09:00,
2013-05-05 10:14:00,58.1,57.3,29.85,SE,127,0.0,1.0,97,0.75,, +RA,0.40,48.00,VWS V14.00,2013-05-05 14:14:00,
2013-05-05 10:19:00,58.1,57.3,29.85,East,79,0.0,5.0,97,0.69,, +RA,0.45,55.00,VWS V14.00,2013-05-05 14:19:00,
2013-05-05 10:24:00,58.1,57.3,29.85,SE,141,0.0,0.0,97,0.33,, +RA,0.48,55.00,VWS V14.00,2013-05-05 14:24:00,
2013-05-05 10:29:00,58.3,57.5,29.85,South,185,0.0,3.0,97,0.34,, +RA,0.51,26.00,VWS V14.00,2013-05-05 14:29:00,
2013-05-05 10:35:00,58.3,57.5,29.87,South,185,0.0,1.0,97,0.51,, +RA,0.56,11.00,VWS V14.00,2013-05-05 14:35:00,
2013-05-05 10:40:00,58.3,57.5,29.87,South,186,0.0,2.0,97,1.10,, +RA,0.61,25.00,VWS V14.00,2013-05-05 14:40:00,
2013-05-05 10:45:00,58.3,57.5,29.87,South,186,0.0,0.0,97,1.32,, +RA,0.69,26.00,VWS V14.00,2013-05-05 14:45:00,
2013-05-05 10:50:00,58.4,57.6,29.87,South,186,0.0,0.0,97,0.61,, +RA,0.73,49.00,VWS V14.00,2013-05-05 14:50:00,
2013-05-05 10:55:00,58.4,57.6,29.87,South,186,0.0,0.0,97,0.59,, +RA,0.78,79.00,VWS V14.00,2013-05-05 14:55:00,
2013-05-05 11:00:00,58.6,58.0,29.87,South,185,0.0,0.0,98,0.63,, +RA,0.83,91.00,VWS V14.00,2013-05-05 15:00:00,
2013-05-05 11:05:00,58.6,58.0,29.86,South,185,0.0,0.0,98,0.66,,-RA,0.86,107.00,VWS V14.00,2013-05-05 15:05:00,
2013-05-05 11:10:00,58.7,58.1,29.86,SSE,162,0.0,0.0,98,0.82,,-RA,0.90,106.00,VWS V14.00,2013-05-05 15:10:00,
2013-05-05 11:15:00,58.7,58.1,29.86,SSE,162,0.0,0.0,98,0.45,, +RA,0.94,127.00,VWS V14.00,2013-05-05 15:15:00,
2013-05-05 11:20:00,58.9,58.3,29.86,SW,217,0.0,0.0,98,0.33,, +RA,0.96,106.00,VWS V14.00,2013-05-05 15:20:00,
2013-05-05 11:25:00,59.0,58.4,29.86,South,179,0.0,0.0,98,0.10,,-RA,0.96,116.00,VWS V14.00,2013-05-05 15:25:00,
2013-05-05 11:30:00,59.2,58.6,29.86,East,92,0.0,0.0,98,0.05,,-RA,0.96,227.00,VWS V14.00,2013-05-05 15:30:00,
2013-05-05 11:35:00,59.3,58.7,29.85,NW,325,0.0,2.0,98,0.04,,-RA,0.97,368.00,VWS V14.00,2013-05-05 15:35:00,
2013-05-05 11:40:00,59.8,59.2,29.85,NW,325,0.0,2.0,98,0.04,,-RA,0.97,389.00,VWS V14.00,2013-05-05 15:40:00,
2013-05-05 11:45:00,60.4,59.8,29.85,NW,308,0.0,1.0,98,0.04,,-RA,0.97,711.00,VWS V14.00,2013-05-05 15:45:00,
2013-05-05 11:50:00,60.9,60.3,29.84,NNW,329,0.0,1.0,98,0.00,,-RA,0.97,359.00,VWS V14.00,2013-05-05 15:50:00,
2013-05-05 11:55:00,61.0,60.4,29.84,SSW,210,0.0,0.0,98,0.00,,-RA,0.97,412.00,VWS V14.00,2013-05-05 15:55:00,
2013-05-05 12:00:00,61.3,60.7,29.84,SE,144,0.0,0.0,98,0.00,,-RA,0.97,412.00,VWS V14.00,2013-05-05 16:00:00,
2013-05-05 12:05:00,61.2,60.6,29.84,ENE,66,0.0,3.0,98,0.00,,-RA,0.97,178.00,VWS V14.00,2013-05-05 16:05:00,
2013-05-05 12:10:00,60.9,60.3,29.84,NE,56,0.0,3.0,98,0.00,,-RA,0.97,208.00,VWS V14.00,2013-05-05 16:10:00,
2013-05-05 12:15:00,60.7,60.1,29.84,North,6,0.0,0.0,98,0.00,,-RA,0.97,211.00,VWS V14.00,2013-05-05 16:15:00,
2013-05-05 12:20:00,60.7,60.1,29.84,ENE,69,0.0,3.0,98,0.00,,-RA,0.97,165.00,VWS V14.00,2013-05-05 16:20:00,
2013-05-05 12:25:00,60.7,60.1,29.84,NE,44,0.0,0.0,98,0.00,,-RA,0.97,172.00,VWS V14.00,2013-05-05 16:25:00,
2013-05-05 12:30:00,60.7,60.1,29.85,West,272,0.0,3.0,98,0.00,,-RA,0.98,116.00,VWS V14.00,2013-05-05 16:30:00,
2013-05-05 12:35:00,60.5,59.9,29.85,East,82,0.0,0.0,98,0.42,,-RA,1.00,148.00,VWS V14.00,2013-05-05 16:35:00,
2013-05-05 12:40:00,60.5,59.9,29.85,East,82,0.0,0.0,98,0.16,,-RA,1.01,167.00,VWS V14.00,2013-05-05 16:40:00,
2013-05-05 12:45:00,60.5,59.9,29.84,East,82,0.0,0.0,98,0.07,,,1.01,188.00,VWS V14.00,2013-05-05 16:45:00,
2013-05-05 12:50:00,60.7,60.1,29.84,East,82,0.0,0.0,98,0.04,,,1.01,271.00,VWS V14.00,2013-05-05 16:50:00,
2013-05-05 12:55:00,61.0,60.4,29.84,East,82,0.0,0.0,98,0.00,,-RA,1.01,206.00,VWS V14.00,2013-05-05 16:55:00,
2013-05-05 13:00:00,61.5,61.2,29.84,East,93,0.0,0.0,99,0.00,,-RA,1.01,255.00,VWS V14.00,2013-05-05 17:00:00,
2013-05-05 13:05:00,61.6,61.3,29.84,East,92,0.0,0.0,99,0.00,,,1.01,174.00,VWS V14.00,2013-05-05 17:05:00,
2013-05-05 13:10:00,61.8,61.5,29.84,East,92,0.0,0.0,99,0.00,,,1.01,246.00,VWS V14.00,2013-05-05 17:10:00,
2013-05-05 13:15:00,61.8,61.5,29.83,East,92,0.0,0.0,99,0.00,,,1.01,234.00,VWS V14.00,2013-05-05 17:15:00,
2013-05-05 13:20:00,62.0,61.7,29.83,East,92,0.0,0.0,99,0.00,,,1.01,252.00,VWS V14.00,2013-05-05 17:20:00,
2013-05-05 13:25:00,62.1,61.8,29.83,East,92,0.0,0.0,99,0.00,,,1.02,202.00,VWS V14.00,2013-05-05 17:25:00,
2013-05-05 13:30:00,62.3,62.0,29.83,East,92,0.0,0.0,99,0.00,,,1.02,201.00,VWS V14.00,2013-05-05 17:30:00,
2013-05-05 13:35:00,62.3,62.0,29.83,East,92,0.0,0.0,99,0.00,,,1.02,176.00,VWS V14.00,2013-05-05 17:35:00,
2013-05-05 13:40:00,62.4,62.1,29.83,East,92,0.0,0.0,99,0.00,,,1.02,238.00,VWS V14.00,2013-05-05 17:40:00,
2013-05-05 13:45:00,62.6,62.3,29.83,East,92,0.0,0.0,99,0.00,,,1.02,313.00,VWS V14.00,2013-05-05 17:45:00,
2013-05-05 13:50:00,63.1,62.8,29.83,East,92,0.0,0.0,99,0.00,,,1.02,575.00,VWS V14.00,2013-05-05 17:50:00,
2013-05-05 13:55:00,63.5,63.2,29.83,East,92,0.0,0.0,99,0.00,,RA,1.02,359.00,VWS V14.00,2013-05-05 17:55:00,
2013-05-05 14:00:00,63.7,63.4,29.82,East,92,0.0,0.0,99,0.00,,RA,1.02,160.00,VWS V14.00,2013-05-05 18:00:00,
2013-05-05 14:05:00,64.0,63.7,29.82,East,99,0.0,0.0,99,0.00,,-RA,1.02,278.00,VWS V14.00,2013-05-05 18:05:00,
2013-05-05 14:10:00,64.2,63.9,29.82,East,99,0.0,0.0,99,0.00,,-RA,1.02,187.00,VWS V14.00,2013-05-05 18:10:00,
2013-05-05 14:15:00,64.5,64.2,29.82,ESE,114,0.0,0.0,99,0.00,,-RA,1.03,84.00,VWS V14.00,2013-05-05 18:15:00,
2013-05-05 14:20:00,64.7,64.4,29.82,SSW,196,0.0,2.0,99,0.25,,-RA,1.05,90.00,VWS V14.00,2013-05-05 18:20:00,
2013-05-05 14:25:00,64.7,64.4,29.82,SSW,196,0.0,0.0,99,0.15,,-RA,1.06,107.00,VWS V14.00,2013-05-05 18:25:00,
2013-05-05 14:30:00,64.8,64.5,29.82,SSW,196,0.0,0.0,99,0.19,,-RA,1.08,77.00,VWS V14.00,2013-05-05 18:30:00,
2013-05-05 14:35:00,65.0,64.7,29.82,SW,220,1.0,6.0,99,0.26,,-RA,1.10,197.00,VWS V14.00,2013-05-05 18:35:00,
2013-05-05 14:40:00,65.2,64.9,29.82,SSW,212,0.0,6.0,99,0.08,,-RA,1.10,333.00,VWS V14.00,2013-05-05 18:40:00,
2013-05-05 14:45:00,65.5,65.2,29.82,SW,229,7.0,8.0,99,0.05,,-RA,1.11,424.00,VWS V14.00,2013-05-05 18:45:00,
2013-05-05 14:50:00,65.0,64.7,29.82,WSW,246,7.0,17.0,99,0.05,,-RA,1.11,366.00,VWS V14.00,2013-05-05 18:50:00,
2013-05-05 14:55:00,65.0,64.7,29.82,SW,234,2.0,10.0,99,0.05,,-RA,1.11,450.00,VWS V14.00,2013-05-05 18:55:00,
2013-05-05 15:00:00,64.5,64.2,29.82,SW,233,7.0,13.0,99,0.04,,-RA,1.11,385.00,VWS V14.00,2013-05-05 19:00:00,
2013-05-05 15:05:00,64.7,64.4,29.82,SW,226,2.0,8.0,99,0.00,,OVC024,1.11,385.00,VWS V14.00,2013-05-05 19:05:00,
2013-05-05 15:10:00,65.0,64.7,29.82,SW,232,6.0,11.0,99,0.00,,OVC024,1.11,551.00,VWS V14.00,2013-05-05 19:10:00,
2013-05-05 15:15:00,65.0,64.7,29.82,SW,223,3.0,8.0,99,0.00,,OVC024,1.11,436.00,VWS V14.00,2013-05-05 19:15:00,
2013-05-05 15:20:00,64.8,64.5,29.82,WSW,239,5.0,11.0,99,0.00,,OVC024,1.11,421.00,VWS V14.00,2013-05-05 19:20:00,
2013-05-05 15:25:00,64.8,64.5,29.82,SW,217,7.0,11.0,99,0.00,,OVC047,1.11,341.00,VWS V14.00,2013-05-05 19:25:00,
2013-05-05 15:30:00,64.8,64.2,29.82,SSW,212,5.0,11.0,98,0.00,,OVC047,1.11,266.00,VWS V14.00,2013-05-05 19:30:00,
2013-05-05 15:35:00,64.8,64.2,29.82,WSW,239,6.0,16.0,98,0.00,,OVC047,1.11,296.00,VWS V14.00,2013-05-05 19:35:00,
2013-05-05 15:40:00,64.7,64.1,29.82,WSW,240,1.0,16.0,98,0.00,,OVC047,1.11,171.00,VWS V14.00,2013-05-05 19:40:00,
2013-05-05 15:45:00,64.7,64.1,29.82,SW,216,0.0,5.0,98,0.00,,OVC047,1.11,241.00,VWS V14.00,2013-05-05 19:45:00,
2013-05-05 15:50:00,64.7,63.8,29.82,SW,220,5.0,5.0,97,0.00,,OVC047,1.11,241.00,VWS V14.00,2013-05-05 19:50:00,
2013-05-05 15:55:00,65.2,64.3,29.82,South,179,0.0,6.0,97,0.00,,OVC047,1.11,465.00,VWS V14.00,2013-05-05 19:55:00,
2013-05-05 16:00:00,65.6,64.7,29.81,SSW,208,0.0,6.0,97,0.00,,OVC047,1.11,296.00,VWS V14.00,2013-05-05 20:00:00,
2013-05-05 16:05:00,65.8,64.9,29.81,WSW,246,7.0,8.0,97,0.00,,BKN048,1.11,350.00,VWS V14.00,2013-05-05 20:05:00,
2013-05-05 16:10:00,66.1,64.9,29.81,WSW,254,0.0,8.0,96,0.00,,BKN048,1.11,350.00,VWS V14.00,2013-05-05 20:10:00,
2013-05-05 16:15:00,66.3,64.8,29.81,WSW,240,0.0,6.0,95,0.00,,BKN048,1.11,326.00,VWS V14.00,2013-05-05 20:15:00,
2013-05-05 16:20:00,66.1,64.0,29.81,West,270,2.0,7.0,93,0.00,,BKN048,1.11,190.00,VWS V14.00,2013-05-05 20:20:00,
2013-05-05 16:25:00,66.1,63.7,29.81,SW,236,6.0,7.0,92,0.00,,BKN048,1.11,375.00,VWS V14.00,2013-05-05 20:25:00,
2013-05-05 16:30:00,66.3,63.3,29.81,SSW,213,2.0,8.0,90,0.00,,BKN048,1.11,438.00,VWS V14.00,2013-05-05 20:30:00,
2013-05-05 16:35:00,66.8,63.8,29.81,SSW,192,0.0,3.0,90,0.00,,BKN048,1.11,389.00,VWS V14.00,2013-05-05 20:35:00,
2013-05-05 16:40:00,67.1,63.4,29.81,WSW,239,11.0,11.0,88,0.00,,BKN048,1.11,389.00,VWS V14.00,2013-05-05 20:40:00,
2013-05-05 16:45:00,67.4,62.4,29.81,SW,233,1.0,8.0,84,0.00,,BKN048,1.11,385.00,VWS V14.00,2013-05-05 20:45:00,
2013-05-05 16:50:00,68.1,62.8,29.81,SSW,212,0.0,8.0,83,0.00,,BKN048,1.11,366.00,VWS V14.00,2013-05-05 20:50:00,
2013-05-05 16:55:00,68.3,61.9,29.81,SSW,212,0.0,8.0,80,0.00,,BKN048,1.11,273.00,VWS V14.00,2013-05-05 20:55:00,
2013-05-05 17:00:00,68.4,61.6,29.81,SW,222,2.0,8.0,79,0.00,,BKN048,1.11,245.00,VWS V14.00,2013-05-05 21:00:00,
2013-05-05 17:05:00,68.4,60.5,29.81,SSW,198,5.0,8.0,76,0.00,,SCT040,1.11,289.00,VWS V14.00,2013-05-05 21:05:00,
2013-05-05 17:10:00,68.9,61.0,29.81,West,272,0.0,8.0,76,0.00,,SCT040,1.11,336.00,VWS V14.00,2013-05-05 21:10:00,
2013-05-05 17:15:00,69.4,61.1,29.80,West,261,0.0,6.0,75,0.00,,SCT040,1.11,118.00,VWS V14.00,2013-05-05 21:15:00,
2013-05-05 17:20:00,69.8,60.8,29.80,SSW,208,3.0,6.0,73,0.00,,SCT040,1.11,137.00,VWS V14.00,2013-05-05 21:20:00,
2013-05-05 17:25:00,69.9,60.5,29.80,SSW,212,5.0,5.0,72,0.00,,SCT040,1.11,109.00,VWS V14.00,2013-05-05 21:25:00,
2013-05-05 17:30:00,70.4,61.3,29.80,South,176,1.0,5.0,73,0.00,,SCT040,1.11,77.00,VWS V14.00,2013-05-05 21:30:00,
2013-05-05 17:35:00,70.6,61.1,29.80,South,179,0.0,2.0,72,0.00,,SCT040,1.11,547.00,VWS V14.00,2013-05-05 21:35:00,
2013-05-05 17:40:00,70.9,60.6,29.80,SSW,198,1.0,3.0,70,0.00,,SCT040,1.11,93.00,VWS V14.00,2013-05-05 21:40:00,
2013-05-05 17:45:00,71.3,60.6,29.80,SSW,193,2.0,6.0,69,0.00,,SCT040,1.11,535.00,VWS V14.00,2013-05-05 21:45:00,
2013-05-05 17:50:00,71.6,60.1,29.80,SSW,208,3.0,6.0,67,0.00,,SCT040,1.11,480.00,VWS V14.00,2013-05-05 21:50:00,
2013-05-05 17:55:00,72.0,58.7,29.80,WSW,237,0.0,5.0,63,0.00,,SCT040,1.11,449.00,VWS V14.00,2013-05-05 21:55:00,
2013-05-05 18:00:00,72.1,59.7,29.80,East,95,0.0,5.0,65,0.00,,SCT040,1.11,424.00,VWS V14.00,2013-05-05 22:00:00,
2013-05-05 18:05:00,72.1,59.3,29.80,SW,219,0.0,3.0,64,0.00,,CLR,1.11,433.00,VWS V14.00,2013-05-05 22:05:00,
2013-05-05 18:10:00,72.3,59.5,29.80,SSW,199,0.0,3.0,64,0.00,,CLR,1.11,218.00,VWS V14.00,2013-05-05 22:10:00,
2013-05-05 18:15:00,72.1,58.8,29.80,SW,223,6.0,6.0,63,0.00,,CLR,1.11,95.00,VWS V14.00,2013-05-05 22:15:00,
2013-05-05 18:20:00,71.6,56.5,29.80,WSW,243,3.0,8.0,59,0.00,,CLR,1.11,40.00,VWS V14.00,2013-05-05 22:20:00,
2013-05-05 18:25:00,71.3,57.2,29.80,WSW,237,1.0,5.0,61,0.00,,CLR,1.11,42.00,VWS V14.00,2013-05-05 22:25:00,
2013-05-05 18:30:00,70.8,56.2,29.80,SW,220,1.0,10.0,60,0.00,,CLR,1.11,46.00,VWS V14.00,2013-05-05 22:30:00,
2013-05-05 18:35:00,70.4,56.3,29.80,SW,219,0.0,5.0,61,0.00,,CLR,1.11,35.00,VWS V14.00,2013-05-05 22:35:00,
2013-05-05 18:40:00,70.3,55.8,29.80,SW,232,0.0,9.0,60,0.00,,CLR,1.11,56.00,VWS V14.00,2013-05-05 22:40:00,
2013-05-05 18:45:00,69.9,56.3,29.80,South,186,0.0,7.0,62,0.00,,CLR,1.11,35.00,VWS V14.00,2013-05-05 22:45:00,
2013-05-05 18:50:00,69.6,56.0,29.80,SSE,167,0.0,7.0,62,0.00,,CLR,1.11,32.00,VWS V14.00,2013-05-05 22:50:00,
2013-05-05 18:55:00,69.4,56.7,29.80,SSE,167,0.0,0.0,64,0.00,,CLR,1.11,30.00,VWS V14.00,2013-05-05 22:55:00,
2013-05-05 19:00:00,69.1,56.0,29.81,SW,224,0.0,7.0,63,0.00,,CLR,1.11,28.00,VWS V14.00,2013-05-05 23:00:00,
2013-05-05 19:05:00,68.9,56.2,29.81,SSW,210,0.0,6.0,64,0.00,,CLR,1.11,26.00,VWS V14.00,2013-05-05 23:05:00,
2013-05-05 19:10:00,68.9,56.2,29.81,SSW,210,0.0,6.0,64,0.00,,CLR,1.11,26.00,VWS V14.00,2013-05-05 23:10:00,
2013-05-05 19:15:00,68.8,56.1,29.80,WSW,241,1.0,4.0,64,0.00,,CLR,1.11,23.00,VWS V14.00,2013-05-05 23:15:00,
2013-05-05 19:20:00,68.6,56.4,29.80,SW,232,0.0,4.0,65,0.00,,CLR,1.11,21.00,VWS V14.00,2013-05-05 23:20:00,
2013-05-05 19:25:00,68.4,57.4,29.80,SW,232,0.0,1.0,68,0.00,,CLR,1.11,19.00,VWS V14.00,2013-05-05 23:25:00,
2013-05-05 19:30:00,68.1,57.6,29.81,SW,232,2.0,2.0,69,0.00,,CLR,1.11,19.00,VWS V14.00,2013-05-05 23:30:00,
2013-05-05 19:35:00,67.8,56.9,29.81,SW,222,1.0,2.0,68,0.00,,CLR,1.11,18.00,VWS V14.00,2013-05-05 23:35:00,
2013-05-05 19:40:00,67.4,56.1,29.81,WSW,253,1.0,6.0,67,0.00,,CLR,1.11,16.00,VWS V14.00,2013-05-05 23:40:00,
2013-05-05 19:45:00,67.3,55.6,29.81,SW,234,0.0,6.0,66,0.00,,CLR,1.11,14.00,VWS V14.00,2013-05-05 23:45:00,
2013-05-05 19:50:00,67.1,56.6,29.81,SW,234,0.0,6.0,69,0.00,,CLR,1.11,14.00,VWS V14.00,2013-05-05 23:50:00,
2013-05-05 19:55:00,66.9,56.4,29.81,SW,234,0.0,0.0,69,0.00,,CLR,1.11,12.00,VWS V14.00,2013-05-05 23:55:00,
2013-05-05 20:00:00,66.8,57.5,29.82,WNW,295,0.0,0.0,72,0.00,,CLR,1.11,11.00,VWS V14.00,2013-05-06 00:00:00,
2013-05-05 20:05:00,66.4,57.9,29.82,WNW,295,0.0,0.0,74,0.00,,CLR,1.11,7.00,VWS V14.00,2013-05-06 00:05:00,
2013-05-05 20:10:00,66.1,58.0,29.82,WNW,295,0.0,0.0,75,0.00,,CLR,1.11,5.00,VWS V14.00,2013-05-06 00:10:00,
2013-05-05 20:15:00,65.6,57.5,29.82,WNW,295,0.0,0.0,75,0.00,,CLR,1.11,0.00,VWS V14.00,2013-05-06 00:15:00,
2013-05-05 20:20:00,65.2,57.5,29.82,WNW,295,0.0,0.0,76,0.00,,CLR,1.11,0.00,VWS V14.00,2013-05-06 00:20:00,
2013-05-05 20:25:00,64.5,57.1,29.82,WNW,295,0.0,0.0,77,0.00,,CLR,1.11,0.00,VWS V14.00,2013-05-06 00:25:00,
2013-05-05 20:30:00,64.0,55.6,29.83,WNW,295,0.0,0.0,74,0.00,,CLR,1.11,0.00,VWS V14.00,2013-05-06 00:30:00,
2013-05-05 20:35:00,63.5,55.4,29.83,WNW,295,0.0,0.0,75,0.00,,CLR,1.11,0.00,VWS V14.00,2013-05-06 00:35:00,
2013-05-05 20:40:00,62.9,55.2,29.83,WNW,295,0.0,0.0,76,0.00,,CLR,1.11,0.00,VWS V14.00,2013-05-06 00:40:00,
2013-05-05 20:45:00,62.3,55.0,29.83,WNW,295,0.0,0.0,77,0.00,,CLR,1.11,0.00,VWS V14.00,2013-05-06 00:45:00,
2013-05-05 20:50:00,61.8,54.5,29.83,WNW,295,0.0,0.0,77,0.00,,CLR,1.11,0.00,VWS V14.00,2013-05-06 00:50:00,
2013-05-05 20:55:00,61.3,54.4,29.83,WNW,295,0.0,0.0,78,0.00,,CLR,1.11,0.00,VWS V14.00,2013-05-06 00:55:00,
2013-05-05 21:00:00,60.9,54.3,29.83,WNW,295,0.0,0.0,79,0.00,,CLR,1.11,0.00,VWS V14.00,2013-05-06 01:00:00,
2013-05-05 21:05:00,60.5,54.0,29.83,WNW,295,0.0,0.0,79,0.00,,CLR,1.11,0.00,VWS V14.00,2013-05-06 01:05:00,
2013-05-05 21:10:00,60.2,54.0,29.83,WNW,295,0.0,0.0,80,0.00,,CLR,1.11,0.00,VWS V14.00,2013-05-06 01:10:00,
2013-05-05 21:15:00,59.9,53.7,29.83,WNW,295,0.0,0.0,80,0.00,,CLR,1.11,0.00,VWS V14.00,2013-05-06 01:15:00,
2013-05-05 21:20:00,59.5,53.7,29.83,WNW,295,0.0,0.0,81,0.00,,CLR,1.11,0.00,VWS V14.00,2013-05-06 01:20:00,
2013-05-05 21:25:00,59.2,53.7,29.83,WNW,295,0.0,0.0,82,0.00,,CLR,1.11,0.00,VWS V14.00,2013-05-06 01:25:00,
2013-05-05 21:30:00,58.9,53.4,29.84,WNW,295,0.0,0.0,82,0.00,,CLR,1.11,0.00,VWS V14.00,2013-05-06 01:30:00,
2013-05-05 21:35:00,58.7,53.2,29.84,WNW,295,0.0,0.0,82,0.00,,CLR,1.11,0.00,VWS V14.00,2013-05-06 01:35:00,
2013-05-05 21:40:00,58.4,52.9,29.84,WNW,295,0.0,0.0,82,0.00,,CLR,1.11,0.00,VWS V14.00,2013-05-06 01:40:00,
2013-05-05 21:45:00,58.1,53.0,29.84,WNW,295,0.0,0.0,83,0.00,,CLR,1.11,0.00,VWS V14.00,2013-05-06 01:45:00,
2013-05-05 21:50:00,57.8,52.7,29.84,WNW,295,0.0,0.0,83,0.00,,CLR,1.11,0.00,VWS V14.00,2013-05-06 01:50:00,
2013-05-05 21:55:00,57.6,52.8,29.84,WNW,295,0.0,0.0,84,0.00,,CLR,1.11,0.00,VWS V14.00,2013-05-06 01:55:00,
2013-05-05 22:00:00,57.3,52.5,29.84,WNW,295,0.0,0.0,84,0.00,,CLR,1.11,0.00,VWS V14.00,2013-05-06 02:00:00,
2013-05-05 22:05:00,57.2,52.4,29.84,WNW,295,0.0,0.0,84,0.00,,CLR,1.11,0.00,VWS V14.00,2013-05-06 02:05:00,
2013-05-05 22:10:00,57.0,52.2,29.84,WNW,295,0.0,0.0,84,0.00,,CLR,1.11,0.00,VWS V14.00,2013-05-06 02:10:00,
2013-05-05 22:15:00,56.9,52.1,29.84,WNW,295,0.0,0.0,84,0.00,,CLR,1.11,0.00,VWS V14.00,2013-05-06 02:15:00,
2013-05-05 22:20:00,56.7,51.9,29.84,WNW,295,0.0,0.0,84,0.00,,CLR,1.11,0.00,VWS V14.00,2013-05-06 02:20:00,
2013-05-05 22:25:00,56.6,52.2,29.84,WNW,295,0.0,0.0,85,0.00,,CLR,1.11,0.00,VWS V14.00,2013-05-06 02:25:00,
2013-05-05 22:30:00,56.5,52.0,29.85,WNW,295,0.0,0.0,85,0.00,,CLR,1.11,0.00,VWS V14.00,2013-05-06 02:30:00,
2013-05-05 22:35:00,56.3,52.2,29.85,WNW,295,0.0,0.0,86,0.00,,CLR,1.11,0.00,VWS V14.00,2013-05-06 02:35:00,
2013-05-05 22:40:00,56.3,52.2,29.85,WNW,295,0.0,0.0,86,0.00,,CLR,1.11,0.00,VWS V14.00,2013-05-06 02:40:00,
2013-05-05 22:45:00,56.2,52.4,29.85,WNW,295,0.0,0.0,87,0.00,,CLR,1.11,0.00,VWS V14.00,2013-05-06 02:45:00,
2013-05-05 22:50:00,56.0,52.2,29.85,WNW,295,0.0,0.0,87,0.00,,CLR,1.11,0.00,VWS V14.00,2013-05-06 02:50:00,
2013-05-05 22:55:00,56.0,52.2,29.85,WNW,295,0.0,0.0,87,0.00,,CLR,1.11,0.00,VWS V14.00,2013-05-06 02:55:00,
2013-05-05 23:00:00,55.9,52.4,29.86,WNW,295,0.0,0.0,88,0.00,,CLR,1.11,0.00,VWS V14.00,2013-05-06 03:00:00,
2013-05-05 23:05:00,55.7,52.2,29.86,WNW,295,0.0,0.0,88,0.00,,CLR,1.11,0.00,VWS V14.00,2013-05-06 03:05:00,
2013-05-05 23:11:00,55.6,52.1,29.86,WNW,295,0.0,0.0,88,0.00,,CLR,1.11,0.00,VWS V14.00,2013-05-06 03:11:00,
2013-05-05 23:16:00,55.6,52.1,29.86,WNW,295,0.0,0.0,88,0.00,,,1.11,0.00,VWS V14.00,2013-05-06 03:16:00,
2013-05-05 23:21:00,55.4,51.9,29.86,WNW,295,0.0,1.0,88,0.00,,,1.11,0.00,VWS V14.00,2013-05-06 03:21:00,
2013-05-05 23:26:00,55.3,51.8,29.86,WNW,295,0.0,0.0,88,0.00,,,1.11,0.00,VWS V14.00,2013-05-06 03:26:00,
2013-05-05 23:31:00,55.1,51.6,29.87,WNW,295,0.0,0.0,88,0.00,,,1.11,0.00,VWS V14.00,2013-05-06 03:31:00,
2013-05-05 23:36:00,55.0,51.5,29.87,WNW,295,0.0,0.0,88,0.00,,,1.11,0.00,VWS V14.00,2013-05-06 03:36:00,
2013-05-05 23:41:00,54.8,51.3,29.87,WNW,295,0.0,0.0,88,0.00,,,1.11,0.00,VWS V14.00,2013-05-06 03:41:00,
2013-05-05 23:46:00,54.7,51.5,29.87,WNW,295,0.0,0.0,89,0.00,,,1.11,0.00,VWS V14.00,2013-05-06 03:46:00,
2013-05-05 23:51:00,54.7,51.5,29.87,WNW,295,0.0,0.0,89,0.00,,,1.11,0.00,VWS V14.00,2013-05-06 03:51:00,
2013-05-05 23:56:00,54.5,51.3,29.87,WNW,295,0.0,0.0,89,0.00,,,1.11,0.00,VWS V14.00,2013-05-06 03:56:00,